Time;durP1;ratioP1;P1;durP2;ratioP2;P2;SDS_P1;SDS_P2;PMS_P1;PMS_P2;Temp;Humidity;BMP_temperature;BMP_pressure;BME280_temperature;BME280_humidity;BME280_pressure;Samples;Min_cycle;Max_cycle;Signal;HPM_P1;HPM_P2
2023/03/03 00:04:09;;;;;;;22.20;13.35;;;;;;;1.64;100.00;102566.19;10416316;28;20044;-78
2023/03/03 00:09:09;;;;;;;19.40;12.60;;;;;;;1.55;100.00;102564.97;10414705;28;20073;-78
2023/03/03 00:14:29;;;;;;;19.77;13.52;;;;;;;1.45;100.00;102565.66;10416777;28;20041;-77
2023/03/03 00:19:30;;;;;;;22.05;13.35;;;;;;;1.37;100.00;102571.47;10429342;28;20026;-77
2023/03/03 00:24:36;;;;;;;24.00;13.95;;;;;;;1.45;100.00;102562.97;10435313;28;20033;-76
2023/03/03 00:29:39;;;;;;;;;;;;;;;1.41;100.00;102567.66;10425423;28;20034;-76
2023/03/03 00:34:43;;;;;;;23.40;14.43;;;;;;;1.44;100.00;102571.94;10417028;28;19905;-78
2023/03/03 00:39:43;;;;;;;22.20;13.65;;;;;;;1.37;100.00;102566.13;10424326;28;20360;-77
2023/03/03 00:44:48;;;;;;;22.77;15.02;;;;;;;1.35;100.00;102568.03;10446766;28;20029;-78
2023/03/03 00:49:48;;;;;;;17.33;13.40;;;;;;;1.25;100.00;102566.91;10450494;28;20349;-77
2023/03/03 00:54:48;;;;;;;21.48;13.75;;;;;;;1.27;100.00;102571.19;10457494;28;20044;-78
2023/03/03 00:59:49;;;;;;;26.17;15.00;;;;;;;1.16;100.00;102565.66;10457861;28;20030;-77
2023/03/03 01:04:51;;;;;;;22.75;13.27;;;;;;;1.30;100.00;102572.81;10459936;28;20032;-76
2023/03/03 01:09:51;;;;;;;19.95;12.13;;;;;;;1.30;100.00;102570.13;10450977;28;20052;-78
2023/03/03 01:14:53;;;;;;;18.23;12.32;;;;;;;1.29;100.00;102563.94;10429370;28;20073;-77
2023/03/03 01:19:54;;;;;;;19.27;9.75;;;;;;;1.29;100.00;102573.75;10423830;28;20057;-77
2023/03/03 01:24:54;;;;;;;17.88;8.90;;;;;;;1.35;100.00;102574.25;10422373;28;20057;-77
2023/03/03 01:29:55;;;;;;;19.10;9.00;;;;;;;1.36;100.00;102567.94;10426867;28;20037;-78
2023/03/03 01:34:56;;;;;;;10.85;7.22;;;;;;;1.36;100.00;102575.09;10420187;28;20376;-78
2023/03/03 01:39:56;;;;;;;12.23;8.63;;;;;;;1.41;100.00;102578.34;10420784;28;20057;-77
2023/03/03 01:45:20;;;;;;;8.48;7.55;;;;;;;1.42;100.00;102573.84;10420996;28;20337;-77
2023/03/03 01:50:34;;;;;;;8.15;7.28;;;;;;;1.33;100.00;102578.81;10420658;28;20021;-77
2023/03/03 01:55:35;;;;;;;16.33;8.80;;;;;;;1.43;100.00;102567.53;10419761;28;20460;-77
2023/03/03 02:00:37;;;;;;;16.25;8.60;;;;;;;1.37;100.00;102568.78;10403578;28;20372;-78
2023/03/03 02:05:38;;;;;;;16.15;7.95;;;;;;;1.32;100.00;102568.25;10438638;28;20041;-78
2023/03/03 02:10:38;;;;;;;21.52;9.68;;;;;;;1.33;100.00;102575.28;10442769;28;20053;-76
2023/03/03 02:15:39;;;;;;;11.27;6.93;;;;;;;1.27;100.00;102563.16;10427469;28;20415;-77
2023/03/03 02:20:52;;;;;;;8.50;7.53;;;;;;;1.20;100.00;102558.31;10444009;28;20033;-77
2023/03/03 02:25:55;;;;;;;11.02;8.13;;;;;;;1.24;100.00;102567.84;10418937;28;20057;-77
2023/03/03 02:30:56;;;;;;;9.75;7.50;;;;;;;1.25;100.00;102562.44;10425368;28;20025;-76
2023/03/03 02:35:57;;;;;;;11.10;8.65;;;;;;;1.21;100.00;102568.03;10419650;28;20116;-77
2023/03/03 02:41:22;;;;;;;8.48;7.18;;;;;;;1.23;100.00;102563.47;10418037;28;20096;-77
2023/03/03 02:46:22;;;;;;;13.00;7.93;;;;;;;1.09;100.00;102551.84;10419820;28;20025;-77
2023/03/03 02:51:23;;;;;;;20.20;8.60;;;;;;;1.14;100.00;102556.88;10420024;28;20030;-77
2023/03/03 02:56:23;;;;;;;12.65;7.90;;;;;;;1.13;100.00;102550.69;10418779;28;20033;-77
2023/03/03 03:01:24;;;;;;;10.48;8.45;;;;;;;1.04;100.00;102547.75;10416293;28;20025;-78
2023/03/03 03:06:24;;;;;;;14.00;7.72;;;;;;;1.02;100.00;102558.53;10416823;28;20116;-77
2023/03/03 03:11:25;;;;;;;9.85;7.72;;;;;;;0.98;100.00;102559.66;10417430;28;20077;-77
2023/03/03 03:16:25;;;;;;;10.27;8.27;;;;;;;0.91;100.00;102568.97;10415429;28;20119;-77
2023/03/03 03:21:26;;;;;;;10.45;7.85;;;;;;;0.83;100.00;102561.47;10414038;28;20029;-76
2023/03/03 03:26:26;;;;;;;8.27;7.55;;;;;;;0.81;100.00;102573.16;10413931;28;20037;-76
2023/03/03 03:31:26;;;;;;;9.10;6.65;;;;;;;0.82;100.00;102564.22;10414812;28;20061;-77
2023/03/03 03:36:27;;;;;;;12.05;8.48;;;;;;;0.89;100.00;102577.09;10396834;28;20354;-77
2023/03/03 03:41:27;;;;;;;7.38;6.47;;;;;;;0.78;100.00;102582.22;10414973;28;20061;-77
2023/03/03 03:46:28;;;;;;;8.95;6.82;;;;;;;0.67;100.00;102574.88;10413934;28;20337;-77
2023/03/03 03:51:28;;;;;;;13.93;7.43;;;;;;;0.62;100.00;102587.59;10414263;28;20055;-77
2023/03/03 03:56:28;;;;;;;9.10;6.95;;;;;;;0.62;100.00;102589.41;10413848;28;20453;-78
2023/03/03 04:01:29;;;;;;;10.70;8.13;;;;;;;0.68;100.00;102578.38;10396173;28;20029;-77
2023/03/03 04:06:30;;;;;;;12.45;9.55;;;;;;;0.70;100.00;102581.78;10413777;28;20037;-76
2023/03/03 04:11:30;;;;;;;9.35;7.85;;;;;;;0.74;100.00;102593.16;10376115;28;1102257;-78
2023/03/03 04:16:31;;;;;;;12.75;8.95;;;;;;;0.71;100.00;102599.53;10418568;28;20033;-76
2023/03/03 04:21:31;;;;;;;16.45;12.40;;;;;;;0.67;100.00;102593.53;10430862;28;20139;-77
2023/03/03 04:26:32;;;;;;;22.27;14.38;;;;;;;0.85;100.00;102596.03;10409427;28;20119;-78
2023/03/03 04:31:32;;;;;;;15.80;13.25;;;;;;;1.02;100.00;102587.00;10423151;28;20057;-77
2023/03/03 04:36:33;;;;;;;51.45;17.77;;;;;;;1.12;100.00;102591.69;10424681;28;20034;-78
2023/03/03 04:41:34;;;;;;;45.05;19.00;;;;;;;1.17;100.00;102586.06;10425351;28;20459;-77
2023/03/03 04:46:34;;;;;;;29.08;15.27;;;;;;;1.23;100.00;102588.34;10426688;28;20464;-76
2023/03/03 04:51:34;;;;;;;21.65;15.32;;;;;;;1.35;100.00;102600.94;10424881;28;20037;-78
2023/03/03 04:56:35;;;;;;;32.20;17.40;;;;;;;1.35;100.00;102598.25;10421254;28;20033;-76
2023/03/03 05:01:35;;;;;;;28.05;15.15;;;;;;;1.42;100.00;102612.06;10421732;28;20132;-78
2023/03/03 05:06:36;;;;;;;16.90;15.18;;;;;;;1.48;100.00;102608.16;10422654;28;20041;-78
2023/03/03 05:11:36;;;;;;;17.75;13.07;;;;;;;1.58;100.00;102612.81;10421578;28;20057;-77
2023/03/03 05:16:36;;;;;;;26.95;14.80;;;;;;;1.65;100.00;102609.78;10421786;28;20072;-76
2023/03/03 05:21:41;;;;;;;19.30;15.75;;;;;;;1.64;100.00;102611.59;10420462;28;20116;-78
2023/03/03 05:26:41;;;;;;;21.75;16.05;;;;;;;1.69;100.00;102606.81;10420923;28;20053;-78
2023/03/03 05:31:41;;;;;;;16.15;12.57;;;;;;;1.75;100.00;102609.06;10419468;28;20053;-77
2023/03/03 05:36:42;;;;;;;24.00;15.60;;;;;;;1.78;100.00;102600.00;10420526;28;20071;-73
2023/03/03 05:41:42;;;;;;;17.65;11.98;;;;;;;1.82;100.00;102604.22;10420182;28;20421;-75
2023/03/03 05:46:43;;;;;;;30.30;14.30;;;;;;;1.83;100.00;102603.25;10419909;28;20164;-73
2023/03/03 05:51:43;;;;;;;22.10;13.88;;;;;;;1.82;100.00;102605.06;10420203;28;20030;-73
2023/03/03 05:56:43;;;;;;;39.22;13.23;;;;;;;1.82;100.00;102606.91;10420382;28;20520;-74
2023/03/03 06:01:44;;;;;;;25.63;14.98;;;;;;;1.81;100.00;102607.84;10348432;28;20140;-76
2023/03/03 06:06:44;;;;;;;24.60;15.88;;;;;;;1.85;100.00;102604.00;10419015;28;20316;-76
2023/03/03 06:11:45;;;;;;;26.85;16.23;;;;;;;1.88;100.00;102610.97;10419457;28;20045;-76
2023/03/03 06:16:46;;;;;;;34.05;15.27;;;;;;;1.90;100.00;102614.41;10420943;28;20112;-77
2023/03/03 06:21:47;;;;;;;31.02;15.02;;;;;;;1.97;100.00;102613.03;10419672;28;20025;-77
2023/03/03 06:26:47;;;;;;;18.63;15.45;;;;;;;1.98;100.00;102620.97;10419637;28;20427;-76
2023/03/03 06:31:48;;;;;;;27.45;16.15;;;;;;;1.97;100.00;102627.25;10402590;28;20053;-75
2023/03/03 06:36:48;;;;;;;28.85;14.23;;;;;;;2.02;100.00;102635.84;10416342;28;20419;-75
2023/03/03 06:41:49;;;;;;;22.65;14.02;;;;;;;2.03;100.00;102628.69;10415046;28;20037;-76
2023/03/03 06:46:49;;;;;;;22.48;15.63;;;;;;;2.05;100.00;102643.66;10417148;28;20083;-76
2023/03/03 06:51:49;;;;;;;17.35;13.80;;;;;;;2.02;100.00;102641.19;10418449;28;20124;-76
2023/03/03 06:56:50;;;;;;;19.02;13.85;;;;;;;2.07;100.00;102652.44;10417440;28;20037;-75
2023/03/03 07:01:50;;;;;;;22.48;16.02;;;;;;;2.10;100.00;102654.88;10400784;28;20044;-77
2023/03/03 07:06:51;;;;;;;31.02;15.85;;;;;;;2.18;100.00;102654.41;10402017;28;20036;-76
2023/03/03 07:11:52;;;;;;;20.00;14.68;;;;;;;2.23;100.00;102670.13;10418429;28;20053;-77
2023/03/03 07:16:58;;;;;;;16.02;13.95;;;;;;;2.27;100.00;102660.97;10417636;28;20048;-76
2023/03/03 07:22:20;;;;;;;23.30;14.63;;;;;;;2.28;100.00;102660.88;10414963;28;20041;-75
2023/03/03 07:27:27;;;;;;;16.55;13.57;;;;;;;2.35;100.00;102679.19;10416409;28;20132;-76
2023/03/03 07:32:38;;;;;;;20.10;14.50;;;;;;;2.29;100.00;102680.44;10415556;28;20507;-76
2023/03/03 07:37:38;;;;;;;22.80;13.48;;;;;;;2.29;100.00;102683.97;10413852;28;20120;-76
2023/03/03 07:42:39;;;;;;;16.88;14.40;;;;;;;2.40;100.00;102680.59;10397627;28;20033;-74
2023/03/03 07:47:40;;;;;;;22.23;13.48;;;;;;;2.56;100.00;102686.66;10397604;28;20057;-76
2023/03/03 07:52:42;;;;;;;18.83;14.32;;;;;;;2.63;100.00;102687.09;10398297;28;20030;-76
2023/03/03 07:57:42;;;;;;;17.38;12.98;;;;;;;2.71;100.00;102689.25;10415600;28;20366;-75
2023/03/03 08:02:55;;;;;;;15.40;13.25;;;;;;;2.76;100.00;102701.38;10413456;28;20037;-75
2023/03/03 08:08:29;;;;;;;30.42;15.95;;;;;;;2.75;100.00;102705.03;10414985;28;20465;-76
2023/03/03 08:13:33;;;;;;;19.15;12.80;;;;;;;2.89;100.00;102705.91;10414056;28;20049;-76
2023/03/03 08:18:46;;;;;;;18.73;14.27;;;;;;;3.02;100.00;102706.78;10414946;28;20457;-78
2023/03/03 08:23:50;;;;;;;19.30;13.95;;;;;;;3.08;100.00;102725.13;10414250;28;20124;-76
2023/03/03 08:28:50;;;;;;;17.52;13.20;;;;;;;3.18;100.00;102739.59;10415048;28;20043;-77
2023/03/03 08:33:51;;;;;;;15.45;13.52;;;;;;;3.23;100.00;102744.66;10415353;28;20097;-78
2023/03/03 08:38:51;;;;;;;17.60;13.32;;;;;;;3.33;100.00;102735.00;10413057;28;20044;-78
2023/03/03 08:43:52;;;;;;;16.25;12.40;;;;;;;3.47;100.00;102739.41;10413018;28;20037;-76
2023/03/03 08:48:52;;;;;;;18.48;14.25;;;;;;;3.64;100.00;102746.31;10416141;28;20052;-77
2023/03/03 08:53:53;;;;;;;21.30;15.27;;;;;;;3.96;100.00;102736.84;10418783;28;20029;-77
2023/03/03 08:58:53;;;;;;;16.95;14.02;;;;;;;4.12;100.00;102759.88;10430433;28;20025;-76
2023/03/03 09:03:54;;;;;;;27.13;14.15;;;;;;;4.03;100.00;102757.84;10425911;28;20041;-77
2023/03/03 09:08:54;;;;;;;13.60;12.02;;;;;;;4.16;100.00;102754.16;10403210;28;20033;-79
2023/03/03 09:14:13;;;;;;;14.88;13.43;;;;;;;4.97;100.00;102751.84;10422144;28;20096;-77
2023/03/03 09:19:31;;;;;;;20.13;14.75;;;;;;;6.17;100.00;102744.28;10419855;28;20037;-77
2023/03/03 09:24:34;;;;;;;17.80;13.77;;;;;;;7.61;100.00;102740.31;10426872;28;20029;-78
2023/03/03 09:29:36;;;;;;;11.52;10.38;;;;;;;8.60;100.00;102738.75;10390036;28;20038;-79
2023/03/03 09:34:40;;;;;;;12.93;9.40;;;;;;;9.37;100.00;102737.03;10422740;28;20116;-78
2023/03/03 09:39:40;;;;;;;7.05;6.28;;;;;;;10.01;100.00;102740.84;10403316;28;20041;-77
2023/03/03 09:44:54;;;;;;;7.28;6.50;;;;;;;11.15;100.00;102742.16;10402381;28;20056;-78
2023/03/03 09:50:04;;;;;;;11.60;6.25;;;;;;;11.45;100.00;102742.72;10419128;28;20432;-77
2023/03/03 09:55:21;;;;;;;7.72;4.75;;;;;;;9.78;100.00;102741.22;10419985;28;20033;-78
2023/03/03 10:00:40;;;;;;;6.57;5.95;;;;;;;10.60;100.00;102741.44;10420906;28;20107;-78
2023/03/03 10:05:46;;;;;;;6.35;5.15;;;;;;;11.08;100.00;102734.81;10421056;28;20033;-78
2023/03/03 10:11:09;;;;;;;9.30;6.47;;;;;;;10.33;100.00;102745.88;10418946;28;20560;-77
2023/03/03 10:16:36;;;;;;;7.78;5.72;;;;;;;9.57;100.00;102739.72;10417489;28;20033;-78
2023/03/03 10:21:58;;;;;;;7.50;5.33;;;;;;;10.01;100.00;102746.28;10397483;28;20046;-78
2023/03/03 10:27:09;;;;;;;4.22;3.70;;;;;;;10.41;100.00;102739.72;10421111;28;20282;-78
2023/03/03 10:32:28;;;;;;;6.93;4.68;;;;;;;10.42;100.00;102742.25;10418406;28;20029;-78
2023/03/03 10:37:52;;;;;;;6.60;4.95;;;;;;;10.27;100.00;102749.19;10417804;28;20029;-78
2023/03/03 10:43:30;;;;;;;4.70;4.22;;;;;;;9.92;100.00;102745.31;10403499;28;20064;-78
2023/03/03 10:48:48;;;;;;;9.57;4.50;;;;;;;8.95;100.00;102744.63;10401526;28;20093;-78
2023/03/03 10:54:18;;;;;;;5.63;4.00;;;;;;;8.21;100.00;102750.41;10416267;28;20034;-77
2023/03/03 10:59:36;;;;;;;6.28;4.03;;;;;;;9.13;100.00;102753.72;10416921;28;20033;-78
2023/03/03 11:04:40;;;;;;;5.70;4.05;;;;;;;11.15;100.00;102750.28;10415132;28;20025;-78
2023/03/03 11:10:08;;;;;;;3.85;3.60;;;;;;;11.64;100.00;102738.97;10416595;28;20036;-77
2023/03/03 11:15:23;;;;;;;3.72;3.00;;;;;;;12.63;100.00;102743.84;10385371;28;20041;-77
2023/03/03 11:20:41;;;;;;;4.55;3.60;;;;;;;12.35;89.50;102737.84;10414515;28;20033;-78
2023/03/03 11:26:10;;;;;;;8.40;3.38;;;;;;;11.14;93.57;102739.63;10398890;28;20032;-79
2023/03/03 11:31:32;;;;;;;5.10;3.40;;;;;;;11.32;98.84;102742.28;10410989;28;20099;-79
2023/03/03 11:36:38;;;;;;;3.50;3.15;;;;;;;11.68;83.54;102731.34;10415121;28;20116;-78
2023/03/03 11:41:42;;;;;;;2.92;2.65;;;;;;;12.45;86.95;102729.56;10401512;28;20116;-78
2023/03/03 11:46:47;;;;;;;5.90;2.13;;;;;;;12.79;73.91;102716.72;10425680;28;20049;-78
2023/03/03 11:52:11;;;;;;;2.97;2.35;;;;;;;13.12;75.94;102714.03;10423525;28;20029;-79
2023/03/03 11:57:31;;;;;;;4.25;2.47;;;;;;;12.87;81.01;102713.16;10418013;28;20029;-77
2023/03/03 12:02:42;;;;;;;2.25;2.05;;;;;;;14.09;66.53;102709.44;10417863;28;20033;-79
2023/03/03 12:07:49;;;;;;;5.15;2.25;;;;;;;13.46;55.57;102702.13;10416079;28;20032;-79
2023/03/03 12:13:13;;;;;;;4.18;2.30;;;;;;;11.63;58.62;102700.13;10416639;28;20049;-79
2023/03/03 12:18:41;;;;;;;2.30;2.10;;;;;;;10.71;73.35;102706.00;10414992;28;20405;-77
2023/03/03 12:24:35;;;;;;;3.17;2.88;;;;;;;10.19;74.97;102701.16;10416161;28;20064;-79
2023/03/03 12:29:40;;;;;;;4.35;2.92;;;;;;;10.03;81.70;102690.16;10370745;28;20049;-79
2023/03/03 12:34:45;;;;;;;2.20;1.83;;;;;;;9.84;80.94;102696.50;10414203;28;20385;-79
2023/03/03 12:39:48;;;;;;;1.88;1.70;;;;;;;9.74;85.10;102701.09;10418056;28;20188;-78
2023/03/03 12:44:51;;;;;;;3.13;1.92;;;;;;;9.61;86.48;102697.88;10422954;28;20069;-78
2023/03/03 12:50:04;;;;;;;7.30;1.77;;;;;;;9.29;83.31;102688.28;10424191;28;20033;-78
2023/03/03 12:55:53;;;;;;;6.72;3.25;;;;;;;9.03;84.21;102699.69;10421215;28;20029;-78
2023/03/03 13:00:56;;;;;;;1.58;1.45;;;;;;;9.18;89.57;102699.22;10367989;28;20044;-78
2023/03/03 13:06:26;;;;;;;3.42;1.70;;;;;;;9.05;84.77;102702.22;10423597;28;20037;-77
2023/03/03 13:11:51;;;;;;;4.10;1.98;;;;;;;9.03;85.12;102691.56;10428556;28;20050;-79
2023/03/03 13:17:00;;;;;;;8.32;2.17;;;;;;;9.20;87.64;102687.28;10424402;28;20061;-78
2023/03/03 13:22:16;;;;;;;8.73;2.22;;;;;;;9.31;87.92;102683.56;10420719;28;20037;-78
2023/03/03 13:27:19;;;;;;;13.38;1.95;;;;;;;9.54;89.57;102689.50;10404179;28;20109;-78
2023/03/03 13:32:31;;;;;;;5.47;1.25;;;;;;;9.57;86.16;102686.47;10410785;28;20038;-78
2023/03/03 13:37:37;;;;;;;1.52;1.42;;;;;;;9.63;86.79;102680.47;10421979;28;20052;-79
2023/03/03 13:42:51;;;;;;;4.50;1.95;;;;;;;9.66;88.32;102685.59;10404846;28;20111;-77
2023/03/03 13:48:00;;;;;;;3.08;2.17;;;;;;;9.70;88.55;102681.59;10395754;28;20387;-78
2023/03/03 13:53:26;;;;;;;5.65;2.20;;;;;;;9.73;87.26;102688.56;10410927;28;20376;-79
2023/03/03 13:58:37;;;;;;;3.60;1.58;;;;;;;9.88;89.04;102665.41;10427939;28;20030;-78
2023/03/03 14:03:59;;;;;;;2.13;1.60;;;;;;;9.59;86.07;102672.81;10429445;28;20075;-78
2023/03/03 14:09:15;;;;;;;5.68;1.45;;;;;;;9.51;85.89;102678.97;10425677;28;20029;-76
2023/03/03 14:14:40;;;;;;;2.08;1.40;;;;;;;9.45;86.79;102672.28;10422067;28;20133;-80
2023/03/03 14:19:44;;;;;;;0.90;0.90;;;;;;;9.19;86.10;102674.78;10418658;28;20033;-79
2023/03/03 14:24:56;;;;;;;4.22;2.88;;;;;;;9.16;88.82;102674.22;10402177;28;20075;-78
2023/03/03 14:29:56;;;;;;;2.97;2.20;;;;;;;9.16;87.63;102668.81;10419372;28;20469;-79
2023/03/03 14:34:58;;;;;;;2.35;2.15;;;;;;;8.98;80.11;102674.09;10402632;28;20037;-79
2023/03/03 14:40:08;;;;;;;5.13;2.42;;;;;;;8.96;87.35;102662.56;10419940;28;20103;-79
2023/03/03 14:45:21;;;;;;;2.30;2.05;;;;;;;8.75;84.65;102673.53;10418204;28;20034;-80
2023/03/03 14:50:37;;;;;;;3.08;1.83;;;;;;;8.69;85.50;102671.38;10420071;28;20477;-79
2023/03/03 14:55:39;;;;;;;1.43;1.37;;;;;;;8.47;84.26;102659.00;10416758;28;20040;-79
2023/03/03 15:00:40;;;;;;;3.72;1.95;;;;;;;8.44;nan;102656.59;10400498;28;20115;-80
2023/03/03 15:05:48;;;;;;;2.67;2.47;;;;;;;8.53;86.60;102656.59;10417117;28;20107;-79
2023/03/03 15:10:48;;;;;;;3.90;2.33;;;;;;;8.64;85.68;102663.69;10417789;28;20065;-79
2023/03/03 15:15:58;;;;;;;3.10;1.67;;;;;;;8.45;82.86;102664.53;10416635;28;20052;-80
2023/03/03 15:20:58;;;;;;;2.67;2.22;;;;;;;8.29;81.78;102661.50;10417917;28;20033;-79
2023/03/03 15:26:03;;;;;;;2.15;1.80;;;;;;;8.31;84.72;102656.81;10416832;28;20041;-80
2023/03/03 15:31:29;;;;;;;5.25;2.60;;;;;;;8.35;84.61;102655.53;10415361;28;20385;-81
2023/03/03 15:36:46;;;;;;;1.80;1.70;;;;;;;8.35;86.17;102642.03;10415926;28;20036;-79
2023/03/03 15:42:06;;;;;;;5.93;2.63;;;;;;;8.16;85.08;102646.41;10415515;28;20041;-78
2023/03/03 15:47:33;;;;;;;3.92;1.52;;;;;;;7.98;81.88;102634.59;10416196;28;20071;-79
2023/03/03 15:52:45;;;;;;;1.77;1.67;;;;;;;7.85;82.53;102631.31;10397129;28;20124;-78
2023/03/03 15:58:14;;;;;;;3.72;2.85;;;;;;;7.80;84.76;102641.63;10415935;28;20040;-79
2023/03/03 16:03:35;;;;;;;7.50;2.00;;;;;;;7.80;86.94;102644.34;10413246;28;20100;-78
2023/03/03 16:08:43;;;;;;;1.85;1.70;;;;;;;7.56;83.97;102640.13;10417011;28;20120;-79
2023/03/03 16:13:53;;;;;;;2.58;1.50;;;;;;;7.38;85.54;102637.19;10420280;28;20057;-79
2023/03/03 16:19:16;;;;;;;4.40;2.15;;;;;;;7.34;87.18;102642.97;10422924;28;20025;-78
2023/03/03 16:24:31;;;;;;;3.75;2.25;;;;;;;7.09;86.59;102637.03;10422999;28;20052;-78
2023/03/03 16:29:56;;;;;;;3.40;2.55;;;;;;;6.96;84.50;102639.94;10396230;28;20120;-79
2023/03/03 16:35:18;;;;;;;11.93;1.85;;;;;;;6.89;85.90;102646.81;10430018;28;20041;-78
2023/03/03 16:40:21;;;;;;;3.30;1.80;;;;;;;6.69;84.97;102651.19;10424298;28;20086;-79
2023/03/03 16:45:26;;;;;;;4.78;2.08;;;;;;;6.49;85.59;102649.31;10429149;28;20044;-79
2023/03/03 16:50:26;;;;;;;2.75;1.30;;;;;;;6.35;86.44;102652.28;10422153;28;20034;-78
2023/03/03 16:55:34;;;;;;;2.50;1.20;;;;;;;6.24;85.40;102654.03;10423299;28;20488;-77
2023/03/03 17:00:39;;;;;;;6.95;1.65;;;;;;;6.12;85.77;102656.88;10424382;28;20132;-79
2023/03/03 17:06:20;;;;;;;5.57;3.08;;;;;;;5.99;87.02;102657.88;10406741;28;20025;-79
2023/03/03 17:11:26;;;;;;;3.92;2.78;;;;;;;6.05;87.86;102667.28;10357020;28;20124;-78
2023/03/03 17:16:52;;;;;;;10.05;2.55;;;;;;;6.13;88.13;102664.84;10421987;28;20414;-79
2023/03/03 17:22:07;;;;;;;7.67;2.77;;;;;;;6.20;87.99;102660.66;10399167;28;20052;-72
2023/03/03 17:27:27;;;;;;;8.98;3.35;;;;;;;6.28;88.46;102665.38;10403192;28;20037;-72
2023/03/03 17:33:03;;;;;;;9.70;2.72;;;;;;;6.36;89.27;102672.84;10404404;28;20025;-72
2023/03/03 17:38:31;;;;;;;5.32;2.67;;;;;;;6.42;89.32;102680.41;10397939;28;20081;-72
2023/03/03 17:43:38;;;;;;;9.88;2.15;;;;;;;6.44;90.00;102679.28;10420124;28;20037;-72
2023/03/03 17:49:01;;;;;;;8.90;3.28;;;;;;;6.39;89.78;102684.22;10422200;28;20033;-72
2023/03/03 17:54:34;;;;;;;12.30;3.88;;;;;;;6.39;90.19;102686.06;10419097;28;20041;-72
2023/03/03 18:00:15;;;;;;;3.45;2.42;;;;;;;6.35;90.53;102687.25;10418442;28;20037;-72
2023/03/03 18:05:41;;;;;;;7.68;2.75;;;;;;;6.21;90.46;102697.31;10418999;28;20028;-71
2023/03/03 18:11:08;;;;;;;2.28;1.98;;;;;;;6.08;90.77;102701.16;10419189;28;20033;-72
2023/03/03 18:16:27;;;;;;;10.32;2.90;;;;;;;6.04;92.02;102705.91;10419109;28;20112;-71
2023/03/03 18:21:44;;;;;;;20.42;3.63;;;;;;;6.11;91.62;102706.28;10417360;28;20034;-72
2023/03/03 18:26:44;;;;;;;10.10;3.53;;;;;;;6.10;91.58;102697.34;10401037;28;20473;-72
2023/03/03 18:31:52;;;;;;;7.60;3.30;;;;;;;6.14;91.87;102704.19;10417497;28;20041;-72
2023/03/03 18:36:56;;;;;;;5.53;2.45;;;;;;;6.16;92.04;102706.75;10419275;28;20029;-72
2023/03/03 18:42:08;;;;;;;27.73;3.63;;;;;;;6.19;91.79;102707.38;10416845;28;20130;-72
2023/03/03 18:47:09;;;;;;;8.85;3.80;;;;;;;6.21;92.34;102716.16;10418478;28;20041;-72
2023/03/03 18:52:20;;;;;;;19.17;3.53;;;;;;;6.24;92.71;102713.22;10416270;28;20038;-72
2023/03/03 18:57:20;;;;;;;8.25;3.17;;;;;;;6.15;92.45;102727.41;10417790;28;20033;-72
2023/03/03 19:02:21;;;;;;;7.45;3.03;;;;;;;6.11;92.79;102720.56;10416832;28;20029;-72
2023/03/03 19:07:26;;;;;;;9.20;3.72;;;;;;;6.16;92.60;102723.75;10416187;28;20111;-72
2023/03/03 19:12:43;;;;;;;9.18;3.22;;;;;;;6.19;92.68;102718.13;10399460;28;20060;-72
2023/03/03 19:17:47;;;;;;;22.65;4.82;;;;;;;6.13;93.41;102725.84;10417020;28;20120;-72
2023/03/03 19:22:49;;;;;;;7.97;2.63;;;;;;;6.16;94.03;102733.63;10415052;28;20083;-72
2023/03/03 19:27:53;;;;;;;13.60;3.28;;;;;;;6.17;94.12;102722.78;10415551;28;20026;-72
2023/03/03 19:33:01;;;;;;;20.45;3.95;;;;;;;6.12;94.06;102719.59;10416032;28;20384;-72
2023/03/03 19:38:10;;;;;;;14.85;3.83;;;;;;;6.13;94.02;102724.00;10417509;28;20105;-72
2023/03/03 19:43:24;;;;;;;9.25;3.78;;;;;;;6.13;94.44;102723.16;10399128;28;20037;-72
2023/03/03 19:48:29;;;;;;;11.52;3.42;;;;;;;6.15;94.62;102715.78;10415070;28;20030;-72
2023/03/03 19:54:08;;;;;;;9.80;3.55;;;;;;;6.16;95.13;102717.50;10398503;28;20532;-72
2023/03/03 19:59:24;;;;;;;8.95;4.07;;;;;;;6.19;94.79;102728.91;10415167;28;20025;-70
2023/03/03 20:04:28;;;;;;;14.63;4.45;;;;;;;6.16;95.04;102715.69;10415665;28;20116;-71
2023/03/03 20:09:35;;;;;;;11.98;4.10;;;;;;;6.18;95.54;102724.47;10413469;28;20029;-70
2023/03/03 20:14:35;;;;;;;;;;;;;;;6.16;95.98;102729.13;10398409;28;20046;-70
2023/03/03 20:19:54;;;;;;;15.87;2.73;;;;;;;6.17;95.92;102725.47;10415317;28;19917;-71
2023/03/03 20:25:19;;;;;;;12.48;4.55;;;;;;;6.18;95.77;102726.31;10399874;28;20289;-72
2023/03/03 20:30:32;;;;;;;19.90;3.90;;;;;;;6.21;96.10;102743.06;10416058;28;20361;-72
2023/03/03 20:35:50;;;;;;;22.65;3.33;;;;;;;6.24;96.18;102748.19;10415137;28;20041;-73
2023/03/03 20:41:09;;;;;;;14.55;3.60;;;;;;;6.29;96.45;102747.84;10399026;28;20059;-72
2023/03/03 20:46:25;;;;;;;20.02;4.50;;;;;;;6.31;96.67;102750.38;10415025;28;20029;-72
2023/03/03 20:51:37;;;;;;;12.10;5.10;;;;;;;6.34;96.79;102747.44;10413927;28;20490;-72
2023/03/03 20:56:42;;;;;;;10.02;3.70;;;;;;;6.33;96.92;102751.13;10415401;28;20140;-72
2023/03/03 21:01:49;;;;;;;6.40;4.10;;;;;;;6.36;96.80;102751.72;10420290;28;20423;-72
2023/03/03 21:06:49;;;;;;;;;;;;;;;6.34;97.35;102747.44;10422773;28;20038;-72
2023/03/03 21:11:50;;;;;;;13.50;3.65;;;;;;;6.37;97.42;102747.19;10438281;28;19917;-72
2023/03/03 21:16:51;;;;;;;15.60;4.25;;;;;;;6.39;97.55;102745.25;10420770;28;20113;-72
2023/03/03 21:21:52;;;;;;;4.53;3.08;;;;;;;6.38;97.84;102746.22;10419966;28;20128;-71
2023/03/03 21:26:52;;;;;;;10.93;4.68;;;;;;;6.40;97.85;102750.50;10421612;28;20120;-72
2023/03/03 21:31:59;;;;;;;24.15;4.65;;;;;;;6.42;98.08;102750.38;10422457;28;20033;-72
2023/03/03 21:37:01;;;;;;;10.77;3.60;;;;;;;6.37;97.83;102741.81;10421597;28;20053;-72
2023/03/03 21:42:04;;;;;;;12.10;3.30;;;;;;;6.32;98.85;102739.53;10402824;28;20037;-72
2023/03/03 21:47:05;;;;;;;7.65;3.13;;;;;;;6.32;99.14;102749.41;10422716;28;20068;-72
2023/03/03 21:52:05;;;;;;;14.75;4.32;;;;;;;6.34;99.09;102752.84;10387847;28;20037;-72
2023/03/03 21:57:06;;;;;;;11.40;4.65;;;;;;;6.34;98.56;102740.22;10420452;28;20121;-73
2023/03/03 22:02:06;;;;;;;9.93;3.72;;;;;;;6.39;98.27;102742.56;10420088;28;20120;-72
2023/03/03 22:07:07;;;;;;;13.23;4.22;;;;;;;6.35;98.36;102733.88;10418108;28;20064;-72
2023/03/03 22:12:08;;;;;;;19.70;3.08;;;;;;;6.35;98.33;102744.66;10402685;28;20045;-72
2023/03/03 22:17:09;;;;;;;5.85;3.10;;;;;;;6.40;98.23;102752.34;10418936;28;20052;-73
2023/03/03 22:22:10;;;;;;;8.95;3.80;;;;;;;6.37;98.45;102739.97;10418584;28;20370;-72
2023/03/03 22:27:10;;;;;;;9.30;2.35;;;;;;;6.37;98.13;102745.38;10402572;28;20034;-72
2023/03/03 22:32:11;;;;;;;15.27;2.58;;;;;;;6.34;98.47;102744.75;10417098;28;20032;-72
2023/03/03 22:37:11;;;;;;;13.25;4.32;;;;;;;6.24;98.43;102748.19;10418108;28;20069;-71
2023/03/03 22:42:12;;;;;;;5.05;3.20;;;;;;;6.28;98.56;102740.72;10418415;28;20033;-72
2023/03/03 22:47:12;;;;;;;12.45;4.00;;;;;;;6.28;98.57;102741.56;10416652;28;20033;-72
2023/03/03 22:52:13;;;;;;;14.93;4.18;;;;;;;6.32;98.47;102752.09;10418241;28;20029;-72
2023/03/03 22:57:13;;;;;;;20.65;4.82;;;;;;;6.28;98.76;102751.47;10417957;28;20034;-72
2023/03/03 23:02:14;;;;;;;19.48;3.17;;;;;;;6.29;98.66;102740.63;10417782;28;20052;-72
2023/03/03 23:07:14;;;;;;;6.95;3.30;;;;;;;6.27;99.12;102749.78;10415720;28;20033;-71
2023/03/03 23:12:15;;;;;;;13.15;3.78;;;;;;;6.26;99.38;102745.41;10417178;28;20045;-72
2023/03/03 23:17:15;;;;;;;6.97;2.58;;;;;;;6.26;99.38;102738.16;10418538;28;20076;-72
2023/03/03 23:22:16;;;;;;;11.35;4.38;;;;;;;6.29;99.12;102745.16;10416876;28;20040;-71
2023/03/03 23:27:16;;;;;;;3.45;2.78;;;;;;;6.26;99.32;102745.41;10416430;28;20079;-72
2023/03/03 23:32:17;;;;;;;15.25;4.68;;;;;;;6.21;99.48;102743.06;10417454;28;20179;-72